Terminal Aerodrome Forecast
Issued by NWS

Home | Current Version | Previous Version | Graphics & Text | Print | Product List | Glossary On
Versions: 1 2 3 4 5 6 7 8 9 10 11 12 13 14 15 16 17 18 19 20
000
FTUS43 KGRB 281256 AAA
TAFRHI
TAF AMD
KRHI 281256Z 2813/2912 16007KT P6SM BKN040 WS020/20035KT
      TEMPO 2813/2815 3SM -TSRA OVC025CB
     FM281500 17010G20KT P6SM BKN040
      TEMPO 2815/2819 4SM -SHRA OVC025
     FM281900 18012G21KT P6SM -SHRA BKN020
      TEMPO 2819/2823 3SM TSRA OVC015CB
     FM282300 19014G24KT 5SM -SHRA BR BKN028
      TEMPO 2823/2903 3SM TSRA BR OVC020CB=

USA.gov is the U.S. government's official web portal to all federal, state and local government web resources and services.